Horatio, South Carolina
Current Conditions -  °F | °C
As of 10:58 PM on Wednesday 28 Jan 2015 (Local Time) from KSSC Reporting Station
Clear Clear  
Wind Chill: -1°   Ceiling: Unl
Heat Index: -1°   Visibility: 10mi
Dew Point: -5°   Wind: 0mph
Humidity: 72%   Direction: NA
Pressure: 30.33"   Gusts: NA
Location:  34.02°N, 80.57°W
Report Text: KSSC 290358Z AUTO 00000KT 10SM CLR M01/M05 A3033 RMK AO2 SLP274 T10071052 $
Loading
Personal Weather Stations






























Interactive Weather Map New forecast layout! Learn more

10-Day Weather Forecast

Advertisements
Track Severe Weather on mobile